Domov               UVHVVR             MKGP            O straneh              
ZDRAVSTVENO VARSTVO RASTLIN
  MREŽA AGROMET. POSTAJ
 ► PROGNOSTIČNA OBVESTILA
AGROMETEOROLOŠKI PODATKI -
ARSO
OBVLADOVANJE TVEGANJ ZARADI
NEUGODNIH VREMENSKIH RAZMER
  ► NARAVNE NESREČE
  ► SUŠA/MOČA
  ► NAMAKANJE
  ► ŽLED (gozdarstvo)
KARTOGRAFSKI PRIKAZI
SPLETNE POVEZAVE
PROJEKTI IN PUBLIKACIJE

AGROMETEOROLOŠKA MREŽA: VREMENSKE POSTAJE IN FENOLOŠKA OPAZOVANJA

Pregled podatkov za lokacijo Šlovrenc, meteorološka postaja 859088

Pregled senzorjev na lokaciji

ID Ime Zadnja
vrednost
Datum
zadnje
spremembe
Tip
senzorja
4325 Omočenost lista (U) 0 U 21.5.2018 12:00 A730WET
3976 Padavine (mm) 0 mm 21.5.2018 12:00 Rain-O-Matic
3974 Relativna vlaga 2 m (% RH) 45,89 % RH 21.5.2018 12:00 50YA
3973 Temperatura 2 m (°C) 25,95 °C 21.5.2018 12:00 50YA

Pregled podatkov zadnjih 24 ur

Zap.
št.
Datum in čas Šlovrenc
Omočenost
lista
Padavine Relativna
vlaga
2
m
Temperatura
2
m
1 21.5.2018 12:30
2 21.5.2018 12:00
3 21.5.2018 11:30
4 21.5.2018 11:00 0 0 45,9 25,9
5 21.5.2018 10:30 0 0 47,9 25,7
6 21.5.2018 10:00 0 0 49,5 25
7 21.5.2018 09:30 0 0 50,9 24,5
8 21.5.2018 09:00 0 0 52,2 24
9 21.5.2018 08:30 0 0 53,2 23,2
10 21.5.2018 08:00 0 0 55,6 22
11 21.5.2018 07:30 0 0 57,4 21,2
12 21.5.2018 07:00 0 0 59 20,4
13 21.5.2018 06:30 0 0 58,7 20
14 21.5.2018 06:00 0 0 59,1 19,2
15 21.5.2018 05:30 0 0 59,1 18,7
16 21.5.2018 05:00 0 0 59,2 18,5
17 21.5.2018 04:30 0 0 60,2 18,5
18 21.5.2018 04:00 0 0 60,4 18,6
19 21.5.2018 03:30 0 0 60,2 18,7
20 21.5.2018 03:00 0 0 61,7 18,5
21 21.5.2018 02:30 0 0 60,5 19
22 21.5.2018 02:00 0 0 61 19,1
23 21.5.2018 01:30 0 0 61,2 19,1
24 21.5.2018 01:00 0 0 61,6 19,2
25 21.5.2018 00:30 0 0 61,8 19,2
26 21.5.2018 00:00 0 0 60,8 19,5
27 20.5.2018 23:30 0 0 61 19,5
28 20.5.2018 23:00 0 0 60,4 19,7
29 20.5.2018 22:30 0 0 59,6 19,9
30 20.5.2018 22:00 0 0 59,4 19,9
31 20.5.2018 21:30 0 0 59,5 19,8
32 20.5.2018 21:00 0 0 59,1 19,8
33 20.5.2018 20:30 0 0 58,7 20
34 20.5.2018 20:00 0 0 57,4 20,5
35 20.5.2018 19:30 0 0 56,8 21
36 20.5.2018 19:00 0 0 57,2 21,3
37 20.5.2018 18:30 0 0 54,9 21,9
38 20.5.2018 18:00 0 0 51 23,1
39 20.5.2018 17:30 0 0 48,4 24,4
40 20.5.2018 17:00 0 0 49 24,7
41 20.5.2018 16:30 0 0 49 24,3
42 20.5.2018 16:00 0 0 50,6 23,2
43 20.5.2018 15:30 0 0 53,5 23,1
44 20.5.2018 15:00 0 0 55,6 23
45 20.5.2018 14:30 0 0 56,6 22,8
46 20.5.2018 14:00 0 0 54,2 23,5
47 20.5.2018 13:30 0 0 51,8 24
48 20.5.2018 13:00 0 0 48,5 25,6
© 2011 Ministrstvo za kmetijstvo, gozdarstvo in prehrano. Vse pravice pridržane.